Time;durP1;ratioP1;P1;durP2;ratioP2;P2;SDS_P1;SDS_P2;PMS_P1;PMS_P2;Temp;Humidity;BMP_temperature;BMP_pressure;BME280_temperature;BME280_humidity;BME280_pressure;Samples;Min_cycle;Max_cycle;Signal;HPM_P1;HPM_P2
2023/08/18 00:02:20;;;;;;;5.35;3.20;;;24.20;78.20;;;;;;5026282;28;20034;-59
2023/08/18 00:04:46;;;;;;;5.45;3.17;;;24.20;78.10;;;;;;5026396;28;20029;-59
2023/08/18 00:07:11;;;;;;;6.57;3.20;;;24.20;78.10;;;;;;5026099;28;20044;-59
2023/08/18 00:09:37;;;;;;;6.35;2.70;;;24.10;78.10;;;;;;5026361;28;20036;-60
2023/08/18 00:12:04;;;;;;;10.52;3.47;;;24.10;78.10;;;;;;5026199;28;20049;-59
2023/08/18 00:14:30;;;;;;;5.05;3.00;;;24.10;78.20;;;;;;5026201;28;20034;-59
2023/08/18 00:16:56;;;;;;;7.35;3.67;;;24.10;78.20;;;;;;5025894;28;20041;-59
2023/08/18 00:19:21;;;;;;;4.70;2.97;;;24.10;78.20;;;;;;5026170;28;20037;-59
2023/08/18 00:21:47;;;;;;;6.68;2.55;;;24.10;78.20;;;;;;5026092;28;20034;-59
2023/08/18 00:24:13;;;;;;;3.95;2.70;;;24.10;78.30;;;;;;5026183;28;20079;-59
2023/08/18 00:26:38;;;;;;;4.93;2.90;;;24.00;79.00;;;;;;5024670;28;20084;-59
2023/08/18 00:29:04;;;;;;;5.82;2.58;;;24.00;78.30;;;;;;5024761;28;20029;-59
2023/08/18 00:31:29;;;;;;;3.85;2.47;;;24.00;78.40;;;;;;5026245;28;20029;-59
2023/08/18 00:33:55;;;;;;;4.53;2.92;;;24.00;78.50;;;;;;5026182;28;20022;-59
2023/08/18 00:36:20;;;;;;;3.70;2.35;;;24.00;78.70;;;;;;5025892;28;20089;-59
2023/08/18 00:38:46;;;;;;;3.60;2.38;;;24.00;78.90;;;;;;5024515;28;20022;-59
2023/08/18 00:41:13;;;;;;;5.93;2.30;;;23.90;79.00;;;;;;5025811;28;20041;-59
2023/08/18 00:43:38;;;;;;;4.30;2.40;;;23.90;79.10;;;;;;5024670;28;20029;-59
2023/08/18 00:46:04;;;;;;;4.95;2.45;;;23.90;79.20;;;;;;5025875;28;20383;-59
2023/08/18 00:48:29;;;;;;;6.45;2.47;;;23.80;79.40;;;;;;5025510;28;20058;-59
2023/08/18 00:50:55;;;;;;;6.55;2.60;;;23.80;79.50;;;;;;5025616;28;20050;-59
2023/08/18 00:53:21;;;;;;;4.38;2.20;;;23.80;79.50;;;;;;5024252;28;20026;-59
2023/08/18 00:55:47;;;;;;;5.32;2.28;;;23.80;79.60;;;;;;5024116;28;20030;-59
2023/08/18 00:58:12;;;;;;;5.57;2.05;;;23.70;79.60;;;;;;5024016;28;20165;-59
2023/08/18 01:00:38;;;;;;;5.60;2.00;;;23.70;79.60;;;;;;5025540;28;20026;-59
2023/08/18 01:03:04;;;;;;;6.55;2.28;;;23.70;79.60;;;;;;5023891;28;20085;-59
2023/08/18 01:05:30;;;;;;;4.50;2.45;;;23.70;79.60;;;;;;5025396;28;20044;-59
2023/08/18 01:07:56;;;;;;;4.38;2.40;;;23.70;79.50;;;;;;5025119;28;20104;-59
2023/08/18 01:10:22;;;;;;;5.90;2.25;;;23.70;79.60;;;;;;5025293;28;20030;-59
2023/08/18 01:13:18;;;;;;;7.70;2.17;;;23.60;79.60;;;;;;5007323;28;20087;-59
2023/08/18 01:15:44;;;;;;;6.90;2.30;;;23.60;79.70;;;;;;5025208;28;20033;-59
2023/08/18 01:18:10;;;;;;;3.35;1.98;;;23.60;79.80;;;;;;5025040;28;20053;-59
2023/08/18 01:20:36;;;;;;;3.53;2.10;;;23.60;79.90;;;;;;5025521;28;20037;-59
2023/08/18 01:23:02;;;;;;;3.45;1.80;;;23.60;79.90;;;;;;5025401;28;20033;-59
2023/08/18 01:25:28;;;;;;;5.18;2.20;;;23.50;79.90;;;;;;5025079;28;20022;-59
2023/08/18 01:27:54;;;;;;;5.55;2.00;;;23.50;79.90;;;;;;5024369;28;20054;-59
2023/08/18 01:30:20;;;;;;;5.10;1.90;;;23.50;80.00;;;;;;5023584;28;20034;-59
2023/08/18 01:32:52;;;;;;;2.90;1.98;;;23.50;80.10;;;;;;5024885;28;20053;-59
2023/08/18 01:35:18;;;;;;;4.30;1.70;;;23.50;80.10;;;;;;5024881;28;20433;-59
2023/08/18 01:37:43;;;;;;;6.45;1.80;;;23.50;80.10;;;;;;5023561;28;20438;-59
2023/08/18 01:40:10;;;;;;;4.13;1.63;;;23.50;80.10;;;;;;5007081;28;20044;-59
2023/08/18 01:42:36;;;;;;;7.95;1.90;;;23.40;80.10;;;;;;5023519;28;20083;-59
2023/08/18 01:45:02;;;;;;;2.70;1.80;;;23.40;80.20;;;;;;5007092;28;20123;-59
2023/08/18 01:47:28;;;;;;;9.18;1.90;;;23.40;80.20;;;;;;5024866;28;20038;-59
2023/08/18 01:49:54;;;;;;;2.95;2.05;;;23.40;80.20;;;;;;5024762;28;20034;-59
2023/08/18 01:52:20;;;;;;;5.63;1.88;;;23.40;80.20;;;;;;5024768;28;20041;-60
2023/08/18 01:54:45;;;;;;;2.83;1.50;;;23.40;80.40;;;;;;5024704;28;20057;-59
2023/08/18 01:57:11;;;;;;;2.90;1.45;;;23.40;80.50;;;;;;5024538;28;20037;-59
2023/08/18 01:59:36;;;;;;;5.60;1.73;;;23.30;80.40;;;;;;5024683;28;20030;-59
2023/08/18 02:02:02;;;;;;;3.83;1.83;;;23.30;80.60;;;;;;5024553;28;20048;-59
2023/08/18 02:04:27;;;;;;;3.92;1.60;;;23.30;80.70;;;;;;5024500;28;20037;-59
2023/08/18 02:06:53;;;;;;;5.05;1.80;;;23.30;80.90;;;;;;5024449;28;20157;-59
2023/08/18 02:09:18;;;;;;;2.00;1.50;;;23.20;80.90;;;;;;5024393;28;20057;-59
2023/08/18 02:11:44;;;;;;;3.05;1.65;;;23.30;81.10;;;;;;5024309;28;20057;-59
2023/08/18 02:14:10;;;;;;;6.28;1.70;;;23.20;81.10;;;;;;5024271;28;20029;-59
2023/08/18 02:16:35;;;;;;;6.03;1.90;;;23.20;81.10;;;;;;5024498;28;20073;-60
2023/08/18 02:19:01;;;;;;;5.35;2.10;;;23.20;81.30;;;;;;5024337;28;20033;-59
2023/08/18 02:21:30;;;;;;;4.68;2.22;;;23.20;81.30;;;;;;5024602;28;20034;-59
2023/08/18 02:23:56;;;;;;;4.25;2.35;;;23.20;81.50;;;;;;5023041;28;20169;-59
2023/08/18 02:26:21;;;;;;;7.82;2.15;;;23.10;81.50;;;;;;5024455;28;20054;-59
2023/08/18 02:28:47;;;;;;;4.97;1.95;;;23.10;81.50;;;;;;5024373;28;20060;-59
2023/08/18 02:31:12;;;;;;;4.57;2.10;;;23.10;81.70;;;;;;5024385;28;20037;-59
2023/08/18 02:33:38;;;;;;;10.85;2.80;;;23.10;81.70;;;;;;5024445;28;20030;-59
2023/08/18 02:36:04;;;;;;;2.90;2.35;;;23.10;81.80;;;;;;5024353;28;20379;-59
2023/08/18 02:38:30;;;;;;;4.18;2.50;;;23.10;81.80;;;;;;5025501;28;20050;-59
2023/08/18 02:40:55;;;;;;;4.35;2.30;;;23.10;82.00;;;;;;5026686;28;20505;-59
2023/08/18 02:43:22;;;;;;;4.65;2.60;;;23.00;82.10;;;;;;5027561;28;20030;-59
2023/08/18 02:45:47;;;;;;;4.43;2.28;;;23.00;82.20;;;;;;5027927;28;20029;-59
2023/08/18 02:48:13;;;;;;;8.75;2.67;;;23.10;82.40;;;;;;5027713;28;20033;-59
2023/08/18 02:50:39;;;;;;;4.18;2.35;;;23.00;83.10;;;;;;5027787;28;20033;-59
2023/08/18 02:53:06;;;;;;;7.65;2.78;;;23.00;82.60;;;;;;5027778;28;20042;-59
2023/08/18 02:55:34;;;;;;;8.80;3.00;;;23.00;82.70;;;;;;5027763;28;20036;-60
2023/08/18 02:58:03;;;;;;;8.40;2.70;;;23.00;83.50;;;;;;5027357;28;20038;-59
2023/08/18 03:00:29;;;;;;;11.45;3.10;;;23.00;83.80;;;;;;5027620;28;20037;-60
2023/08/18 03:02:54;;;;;;;6.38;2.47;;;23.00;83.10;;;;;;5026076;28;20022;-59
2023/08/18 03:05:20;;;;;;;8.55;2.85;;;23.00;83.10;;;;;;5027469;28;20037;-59
2023/08/18 03:07:45;;;;;;;3.72;2.13;;;23.00;83.00;;;;;;5027186;28;20045;-59
2023/08/18 03:10:11;;;;;;;7.88;2.63;;;23.00;83.00;;;;;;5025940;28;20040;-59
2023/08/18 03:12:36;;;;;;;7.82;2.80;;;22.90;83.00;;;;;;5027378;28;20035;-59
2023/08/18 03:15:02;;;;;;;9.43;2.33;;;22.90;83.10;;;;;;5027642;28;20133;-59
2023/08/18 03:17:28;;;;;;;10.02;2.47;;;22.90;83.10;;;;;;5027255;28;20133;-59
2023/08/18 03:19:53;;;;;;;5.97;2.30;;;22.90;83.20;;;;;;5027012;28;20454;-59
2023/08/18 03:22:19;;;;;;;6.22;3.05;;;22.90;83.20;;;;;;5026851;28;20038;-59
2023/08/18 03:24:44;;;;;;;8.48;3.38;;;22.90;83.30;;;;;;5026735;28;20159;-59
2023/08/18 03:27:10;;;;;;;15.23;4.00;;;22.90;83.40;;;;;;5026854;28;20061;-59
2023/08/18 03:29:35;;;;;;;63.25;7.35;;;22.80;83.60;;;;;;5026860;28;20085;-60
2023/08/18 03:32:01;;;;;;;43.33;6.95;;;22.80;83.90;;;;;;5026804;28;20041;-59
2023/08/18 03:34:26;;;;;;;41.45;6.13;;;22.80;84.30;;;;;;5026873;28;20030;-59
2023/08/18 03:36:52;;;;;;;27.05;6.00;;;22.80;84.30;;;;;;5026833;28;20136;-59
2023/08/18 03:39:17;;;;;;;21.70;5.13;;;22.80;84.50;;;;;;5026902;28;20076;-59
2023/08/18 03:41:43;;;;;;;24.70;5.80;;;22.80;84.60;;;;;;5026726;28;20030;-59
2023/08/18 03:44:08;;;;;;;31.77;6.05;;;22.70;84.60;;;;;;5026639;28;20041;-59
2023/08/18 03:46:34;;;;;;;23.60;5.15;;;22.80;84.80;;;;;;5026781;28;20030;-60
2023/08/18 03:49:00;;;;;;;31.83;5.63;;;22.70;84.60;;;;;;5026757;28;20041;-59
2023/08/18 03:51:25;;;;;;;34.28;5.82;;;22.80;84.80;;;;;;5025611;28;20030;-59
2023/08/18 03:53:51;;;;;;;33.10;4.60;;;22.70;84.90;;;;;;5026923;28;20018;-59
2023/08/18 03:56:16;;;;;;;28.10;5.78;;;22.70;85.00;;;;;;5026880;28;20384;-60
2023/08/18 03:58:42;;;;;;;22.90;4.38;;;22.70;85.10;;;;;;5027526;28;20018;-59
2023/08/18 04:01:08;;;;;;;19.25;4.60;;;22.70;85.10;;;;;;5027305;28;20037;-60
2023/08/18 04:03:35;;;;;;;16.48;4.32;;;22.70;85.10;;;;;;5027054;28;20045;-59
2023/08/18 04:06:00;;;;;;;26.85;4.45;;;22.70;85.20;;;;;;5025314;28;20036;-59
2023/08/18 04:08:26;;;;;;;36.03;5.60;;;22.70;85.30;;;;;;5026490;28;20104;-58
2023/08/18 04:10:51;;;;;;;38.78;5.82;;;22.70;85.30;;;;;;5026755;28;20120;-59
2023/08/18 04:13:17;;;;;;;37.60;5.93;;;22.70;85.40;;;;;;5026086;28;20053;-59
2023/08/18 04:15:42;;;;;;;29.50;5.68;;;22.60;85.40;;;;;;5024763;28;20076;-59
2023/08/18 04:18:08;;;;;;;22.15;5.43;;;22.60;85.50;;;;;;5026068;28;20045;-59
2023/08/18 04:20:35;;;;;;;25.85;4.82;;;22.60;85.60;;;;;;5025989;28;20034;-59
2023/08/18 04:23:00;;;;;;;28.17;5.28;;;22.60;85.70;;;;;;5024503;28;20029;-59
2023/08/18 04:25:26;;;;;;;26.02;5.05;;;22.60;85.80;;;;;;5026064;28;20029;-59
2023/08/18 04:27:52;;;;;;;46.47;6.50;;;22.60;85.90;;;;;;5025773;28;20034;-59
2023/08/18 04:30:17;;;;;;;30.35;5.45;;;22.60;85.90;;;;;;5025997;28;20152;-59
2023/08/18 04:32:43;;;;;;;33.92;5.75;;;22.60;86.10;;;;;;5024469;28;20065;-59
2023/08/18 04:35:08;;;;;;;31.00;6.25;;;22.60;86.30;;;;;;5025712;28;20119;-59
2023/08/18 04:37:34;;;;;;;23.90;4.50;;;22.50;86.60;;;;;;5025838;28;20053;-59
2023/08/18 04:40:06;;;;;;;21.27;4.15;;;22.50;86.80;;;;;;5026492;28;20103;-59
2023/08/18 04:42:32;;;;;;;130.07;19.58;;;22.50;86.90;;;;;;5024526;28;20054;-56
2023/08/18 04:44:57;;;;;;;38.83;7.05;;;22.50;87.10;;;;;;5025659;28;20073;-56
2023/08/18 04:47:23;;;;;;;63.33;8.25;;;22.50;86.90;;;;;;5025513;28;20084;-56
2023/08/18 04:49:48;;;;;;;31.23;7.45;;;22.50;87.00;;;;;;5025833;28;20090;-56
2023/08/18 04:52:15;;;;;;;32.58;6.85;;;22.50;87.00;;;;;;5025674;28;20364;-56
2023/08/18 04:54:40;;;;;;;27.77;6.00;;;22.50;87.00;;;;;;5025497;28;20030;-56
2023/08/18 04:57:07;;;;;;;38.13;6.15;;;22.50;87.00;;;;;;5025567;28;20037;-55
2023/08/18 04:59:32;;;;;;;23.23;6.57;;;22.40;87.00;;;;;;5025456;28;20029;-56
2023/08/18 05:01:58;;;;;;;24.85;5.03;;;22.40;87.10;;;;;;5024382;28;20126;-56
2023/08/18 05:04:23;;;;;;;29.90;4.90;;;22.40;87.20;;;;;;5025168;28;20026;-56
2023/08/18 05:06:49;;;;;;;22.50;4.90;;;22.40;87.20;;;;;;5007631;28;20048;-56
2023/08/18 05:09:14;;;;;;;16.23;5.03;;;22.40;87.20;;;;;;5023573;28;20053;-56
2023/08/18 05:11:40;;;;;;;16.98;4.82;;;22.40;87.20;;;;;;5025125;28;20053;-56
2023/08/18 05:14:06;;;;;;;20.88;5.32;;;22.40;87.40;;;;;;5024883;28;20029;-55
2023/08/18 05:16:32;;;;;;;15.88;5.30;;;22.40;87.50;;;;;;5024996;28;20494;-56
2023/08/18 05:18:58;;;;;;;17.67;4.53;;;22.30;87.70;;;;;;5024901;28;20036;-55
2023/08/18 05:21:24;;;;;;;14.23;4.10;;;22.30;87.60;;;;;;5025036;28;20414;-56
2023/08/18 05:23:49;;;;;;;16.98;4.28;;;22.30;87.70;;;;;;5023698;28;20029;-56
2023/08/18 05:26:15;;;;;;;21.58;4.10;;;22.30;87.80;;;;;;5007385;28;20042;-56
2023/08/18 05:28:40;;;;;;;17.08;3.85;;;22.30;88.00;;;;;;5025017;28;20026;-56
2023/08/18 05:31:10;;;;;;;15.77;3.35;;;22.20;88.00;;;;;;5024902;28;20030;-56
2023/08/18 05:33:35;;;;;;;7.35;3.00;;;22.20;88.10;;;;;;5024726;28;20085;-56
2023/08/18 05:36:03;;;;;;;13.55;3.15;;;22.20;88.20;;;;;;5024846;28;20030;-56
2023/08/18 05:38:28;;;;;;;7.65;2.63;;;22.20;88.30;;;;;;5023838;28;20113;-56
2023/08/18 05:41:10;;;;;;;8.73;2.83;;;22.10;88.20;;;;;;5024740;28;20038;-56
2023/08/18 05:43:37;;;;;;;9.65;3.05;;;22.10;88.30;;;;;;5023541;28;20544;-56
2023/08/18 05:46:03;;;;;;;8.73;3.10;;;22.10;88.40;;;;;;5024883;28;20030;-56
2023/08/18 05:48:29;;;;;;;8.98;3.03;;;22.10;88.60;;;;;;5024605;28;20045;-56
2023/08/18 05:50:55;;;;;;;11.25;3.10;;;22.10;88.70;;;;;;5023352;28;20564;-56
2023/08/18 05:53:20;;;;;;;11.75;2.97;;;22.00;88.70;;;;;;5024622;28;20030;-56
2023/08/18 05:55:46;;;;;;;6.53;2.92;;;22.00;88.70;;;;;;5024691;28;20083;-56
2023/08/18 05:58:12;;;;;;;10.73;2.67;;;22.00;88.80;;;;;;5024742;28;20041;-55
2023/08/18 06:00:38;;;;;;;10.38;3.13;;;22.00;88.90;;;;;;5024752;28;20434;-56
2023/08/18 06:03:03;;;;;;;11.00;2.97;;;22.00;88.90;;;;;;5024901;28;20041;-56
2023/08/18 06:05:29;;;;;;;10.90;3.05;;;22.00;89.10;;;;;;5024962;28;20098;-56
2023/08/18 06:07:57;;;;;;;8.02;3.00;;;22.00;89.10;;;;;;5024456;28;20038;-56
2023/08/18 06:10:23;;;;;;;7.43;2.67;;;22.00;89.90;;;;;;5024503;28;20030;-56
2023/08/18 06:12:49;;;;;;;5.57;2.70;;;22.00;89.30;;;;;;5024847;28;20032;-56
2023/08/18 06:15:19;;;;;;;10.73;3.10;;;22.00;89.50;;;;;;5028393;28;20140;-56
2023/08/18 06:17:44;;;;;;;8.68;3.03;;;21.90;89.50;;;;;;5027142;28;20037;-55
2023/08/18 06:20:11;;;;;;;6.72;2.47;;;22.00;89.60;;;;;;5028332;28;20021;-56
2023/08/18 06:22:37;;;;;;;10.32;3.25;;;21.90;89.50;;;;;;5028115;28;20061;-56
2023/08/18 06:25:04;;;;;;;9.63;3.33;;;22.00;89.70;;;;;;5026031;28;20056;-56
2023/08/18 06:27:49;;;;;;;9.15;2.85;;;21.90;89.80;;;;;;5020873;28;20467;-56
2023/08/18 06:30:15;;;;;;;18.00;3.90;;;21.90;90.00;;;;;;5007527;28;20030;-56
2023/08/18 06:32:41;;;;;;;11.98;4.00;;;21.90;90.10;;;;;;5043186;28;20060;-56
2023/08/18 06:35:07;;;;;;;22.38;5.35;;;21.90;90.10;;;;;;5025416;28;20521;-56
2023/08/18 06:37:32;;;;;;;12.10;3.47;;;22.00;90.20;;;;;;5021308;28;20049;-56
2023/08/18 06:39:58;;;;;;;27.65;5.10;;;21.90;90.10;;;;;;5021083;28;20026;-56
2023/08/18 06:42:23;;;;;;;19.75;4.45;;;21.90;90.10;;;;;;5019771;28;20027;-55
2023/08/18 06:44:49;;;;;;;22.38;4.05;;;22.00;90.10;;;;;;5018803;28;20048;-56
2023/08/18 06:47:14;;;;;;;22.25;4.35;;;22.10;90.20;;;;;;5025271;28;20044;-56
2023/08/18 06:49:40;;;;;;;18.73;4.13;;;22.00;90.20;;;;;;5025578;28;20022;-56
2023/08/18 06:52:06;;;;;;;28.10;5.65;;;22.20;90.20;;;;;;5021540;28;20026;-56
2023/08/18 06:54:31;;;;;;;31.95;5.28;;;22.00;90.20;;;;;;5020534;28;20017;-55
2023/08/18 06:56:57;;;;;;;36.78;5.53;;;22.00;90.40;;;;;;5019835;28;20060;-56
2023/08/18 06:59:22;;;;;;;24.30;4.43;;;22.10;90.30;;;;;;5020780;28;20026;-56
2023/08/18 07:01:48;;;;;;;20.25;4.53;;;22.00;90.20;;;;;;5017158;28;20022;-56
2023/08/18 07:04:13;;;;;;;18.50;4.25;;;22.30;90.30;;;;;;5018718;28;20026;-56
2023/08/18 07:06:41;;;;;;;15.43;3.40;;;22.10;90.40;;;;;;5019758;28;20151;-56
2023/08/18 07:09:09;;;;;;;34.75;5.45;;;22.10;90.40;;;;;;5019009;28;20061;-56
2023/08/18 07:11:35;;;;;;;26.00;5.28;;;22.10;90.30;;;;;;5018607;28;20110;-56
2023/08/18 07:14:00;;;;;;;23.38;4.63;;;22.10;90.20;;;;;;5017918;28;20052;-56
2023/08/18 07:16:26;;;;;;;26.10;4.10;;;22.20;90.10;;;;;;5016914;28;20042;-56
2023/08/18 07:18:51;;;;;;;18.75;4.05;;;22.10;90.40;;;;;;5015414;28;20034;-55
2023/08/18 07:21:17;;;;;;;28.05;4.75;;;22.20;90.30;;;;;;5020846;28;20094;-56
2023/08/18 07:23:42;;;;;;;26.67;4.88;;;22.30;90.20;;;;;;5015521;28;20022;-56
2023/08/18 07:26:08;;;;;;;25.92;4.50;;;22.20;90.20;;;;;;5007052;28;20049;-55
2023/08/18 07:28:34;;;;;;;33.85;5.50;;;22.20;90.10;;;;;;5023414;28;20112;-56
2023/08/18 07:31:03;;;;;;;28.25;4.85;;;22.20;90.10;;;;;;5025718;28;20037;-56
2023/08/18 07:33:30;;;;;;;31.98;4.97;;;22.20;90.30;;;;;;5018323;28;20034;-56
2023/08/18 07:35:56;;;;;;;26.10;4.28;;;22.30;90.10;;;;;;5018866;28;20022;-56
2023/08/18 07:38:22;;;;;;;31.20;5.38;;;22.20;90.00;;;;;;5015035;28;20045;-56
2023/08/18 07:40:47;;;;;;;34.33;5.50;;;22.50;90.00;;;;;;5017830;28;20061;-56
2023/08/18 07:43:14;;;;;;;27.08;5.70;;;22.30;89.80;;;;;;5015797;28;20455;-56
2023/08/18 07:45:39;;;;;;;35.25;5.68;;;22.30;89.60;;;;;;5018569;28;20039;-55
2023/08/18 07:48:05;;;;;;;24.38;4.28;;;22.30;89.80;;;;;;5018624;28;20179;-56
2023/08/18 07:50:31;;;;;;;38.25;5.65;;;22.30;89.80;;;;;;5017889;28;20034;-55
2023/08/18 07:52:56;;;;;;;14.40;4.32;;;22.30;89.50;;;;;;5016936;28;20045;-55
2023/08/18 07:55:22;;;;;;;24.42;4.05;;;22.40;89.50;;;;;;5017755;28;20029;-56
2023/08/18 07:57:48;;;;;;;28.20;5.03;;;22.40;89.50;;;;;;5016318;28;20096;-56
2023/08/18 08:00:16;;;;;;;30.10;4.82;;;22.40;89.30;;;;;;5019606;28;20018;-56
2023/08/18 08:02:45;;;;;;;22.52;4.18;;;22.40;89.20;;;;;;5016466;28;20028;-56
2023/08/18 08:05:12;;;;;;;27.20;5.07;;;22.50;89.20;;;;;;5019009;28;20026;-56
2023/08/18 08:07:38;;;;;;;33.97;5.63;;;22.40;89.10;;;;;;5010315;28;20148;-56
2023/08/18 08:10:04;;;;;;;30.00;5.13;;;22.40;89.00;;;;;;5022890;28;20025;-56
2023/08/18 08:12:30;;;;;;;48.78;6.40;;;22.50;89.30;;;;;;5021695;28;20034;-56
2023/08/18 08:14:56;;;;;;;33.85;5.47;;;22.50;89.20;;;;;;5018485;28;20026;-56
2023/08/18 08:17:23;;;;;;;40.72;6.63;;;22.50;88.80;;;;;;5015473;28;20100;-55
2023/08/18 08:19:49;;;;;;;35.63;5.95;;;22.50;88.50;;;;;;5019996;28;20022;-55
2023/08/18 08:22:16;;;;;;;47.58;5.15;;;22.60;88.40;;;;;;5015904;28;20032;-56
2023/08/18 08:24:42;;;;;;;31.45;5.60;;;22.60;88.60;;;;;;5016937;28;20082;-56
2023/08/18 08:27:07;;;;;;;28.50;4.97;;;22.60;88.30;;;;;;5017304;28;20072;-56
2023/08/18 08:29:33;;;;;;;28.05;4.55;;;22.60;88.20;;;;;;5018143;28;20026;-56
2023/08/18 08:31:58;;;;;;;25.77;5.18;;;22.60;88.00;;;;;;5014249;28;20049;-55
2023/08/18 08:34:24;;;;;;;44.60;6.65;;;22.60;88.20;;;;;;5032387;28;20037;-56
2023/08/18 08:36:50;;;;;;;45.45;7.72;;;22.70;88.30;;;;;;5013836;28;20038;-56
2023/08/18 08:39:15;;;;;;;38.05;5.90;;;22.70;88.50;;;;;;5020066;28;20034;-56
2023/08/18 08:41:41;;;;;;;37.67;5.50;;;22.80;88.30;;;;;;5019759;28;20029;-55
2023/08/18 08:44:06;;;;;;;40.00;5.65;;;22.80;88.50;;;;;;5016889;28;20042;-55
2023/08/18 08:46:32;;;;;;;59.47;8.80;;;22.80;88.20;;;;;;5021700;28;20467;-56
2023/08/18 08:48:57;;;;;;;61.00;8.32;;;22.80;88.20;;;;;;5009181;28;20141;-56
2023/08/18 08:51:23;;;;;;;52.95;7.10;;;22.80;88.20;;;;;;5019880;28;20030;-56
2023/08/18 08:53:51;;;;;;;51.80;8.63;;;22.80;87.90;;;;;;5040195;28;20030;-56
2023/08/18 08:56:17;;;;;;;51.95;6.53;;;22.90;87.90;;;;;;5002443;28;20037;-56
2023/08/18 08:58:43;;;;;;;48.88;6.97;;;22.90;87.50;;;;;;5017424;28;20047;-56
2023/08/18 09:01:09;;;;;;;48.92;7.10;;;23.00;87.00;;;;;;5015686;28;20057;-56
2023/08/18 09:03:35;;;;;;;56.50;8.00;;;22.90;86.80;;;;;;5016749;28;20034;-56
2023/08/18 09:06:00;;;;;;;59.05;8.52;;;23.00;86.80;;;;;;5018708;28;20018;-56
2023/08/18 09:08:26;;;;;;;40.40;7.25;;;23.00;86.80;;;;;;5024328;28;20041;-56
2023/08/18 09:10:51;;;;;;;48.28;7.38;;;23.00;86.60;;;;;;5020794;28;20026;-56
2023/08/18 09:13:17;;;;;;;52.33;7.85;;;23.00;86.40;;;;;;5020167;28;20417;-56
2023/08/18 09:15:44;;;;;;;43.35;7.10;;;23.10;86.40;;;;;;5020529;28;20450;-56
2023/08/18 09:18:11;;;;;;;93.63;10.88;;;23.10;86.10;;;;;;5022401;28;20042;-56
2023/08/18 09:20:37;;;;;;;63.72;8.90;;;23.10;86.10;;;;;;5015646;28;20030;-56
2023/08/18 09:23:03;;;;;;;63.78;9.15;;;23.20;86.20;;;;;;5020091;28;20042;-56
2023/08/18 09:25:35;;;;;;;51.90;7.75;;;23.10;86.20;;;;;;5036264;28;20026;-56
2023/08/18 09:28:04;;;;;;;66.13;9.40;;;23.20;86.00;;;;;;5020803;28;20340;-56
2023/08/18 09:30:31;;;;;;;52.28;7.22;;;23.20;86.20;;;;;;5037178;28;20041;-56
2023/08/18 09:32:59;;;;;;;44.97;6.10;;;23.30;86.20;;;;;;5022602;28;20111;-55
2023/08/18 09:35:24;;;;;;;51.50;7.47;;;23.30;85.90;;;;;;5022617;28;20501;-55
2023/08/18 09:37:57;;;;;;;78.00;8.80;;;23.30;85.30;;;;;;5017293;28;20034;-56
2023/08/18 09:40:22;;;;;;;77.45;9.10;;;23.40;85.30;;;;;;5020314;28;20026;-56
2023/08/18 09:42:48;;;;;;;60.92;7.95;;;23.40;86.30;;;;;;5017629;28;20080;-56
2023/08/18 09:45:13;;;;;;;49.97;8.20;;;23.50;85.50;;;;;;5022587;28;20030;-56
2023/08/18 09:47:40;;;;;;;72.25;8.90;;;23.50;85.40;;;;;;5021703;28;20084;-55
2023/08/18 09:50:08;;;;;;;59.80;8.18;;;23.50;85.00;;;;;;5030135;28;20104;-55
2023/08/18 09:52:33;;;;;;;50.85;7.22;;;23.50;84.90;;;;;;5028361;28;20061;-56
2023/08/18 09:55:13;;;;;;;33.05;7.22;;;23.60;85.00;;;;;;5027492;28;20018;-56
2023/08/18 09:58:17;;;;;;;48.53;6.85;;;23.60;84.70;;;;;;5028658;28;20493;-56
2023/08/18 10:00:43;;;;;;;49.80;7.20;;;23.70;85.50;;;;;;5020503;28;20026;-55
2023/08/18 10:03:09;;;;;;;74.93;8.32;;;23.70;84.60;;;;;;5025011;28;20084;-56
2023/08/18 10:05:34;;;;;;;52.92;8.80;;;23.80;85.30;;;;;;5021325;28;20023;-56
2023/08/18 10:08:00;;;;;;;40.05;6.60;;;23.80;84.60;;;;;;5026263;28;20038;-56
2023/08/18 10:10:26;;;;;;;57.60;8.25;;;23.90;84.80;;;;;;5021524;28;20050;-56
2023/08/18 10:12:51;;;;;;;82.68;10.23;;;23.90;84.40;;;;;;5009622;28;20121;-55
2023/08/18 10:15:17;;;;;;;82.68;11.23;;;24.00;85.10;;;;;;5029049;28;20032;-54
2023/08/18 10:17:43;;;;;;;98.57;11.38;;;24.00;85.00;;;;;;5028462;28;20049;-56
2023/08/18 10:20:11;;;;;;;64.18;8.75;;;24.10;84.80;;;;;;5030060;28;20030;-56
2023/08/18 10:22:37;;;;;;;93.85;11.00;;;24.10;84.20;;;;;;5030397;28;20046;-55
2023/08/18 10:25:04;;;;;;;73.00;9.75;;;24.10;84.10;;;;;;5028135;28;20146;-55
2023/08/18 10:27:29;;;;;;;129.95;13.07;;;24.10;84.10;;;;;;5026218;28;20030;-56
2023/08/18 10:30:02;;;;;;;121.53;13.80;;;24.20;84.10;;;;;;5028498;28;20036;-55
2023/08/18 10:32:31;;;;;;;101.72;12.70;;;24.20;84.10;;;;;;5030606;28;20048;-55
2023/08/18 10:35:19;;;;;;;92.80;10.40;;;24.20;84.00;;;;;;5029167;28;20129;-55
2023/08/18 10:37:51;;;;;;;100.35;12.50;;;24.30;83.90;;;;;;5029426;28;20032;-56
2023/08/18 10:40:28;;;;;;;88.05;11.13;;;24.40;83.80;;;;;;5030634;28;20030;-55
2023/08/18 10:42:58;;;;;;;71.40;10.98;;;24.40;83.60;;;;;;5030216;28;20041;-56
2023/08/18 10:45:25;;;;;;;75.18;9.48;;;24.50;83.20;;;;;;5025080;28;20026;-56
2023/08/18 10:47:51;;;;;;;49.78;8.93;;;24.50;83.20;;;;;;5029424;28;20033;-56
2023/08/18 10:50:19;;;;;;;75.13;10.07;;;24.60;83.10;;;;;;5027836;28;20049;-56
2023/08/18 10:52:45;;;;;;;85.35;10.18;;;24.60;83.10;;;;;;5028477;28;20041;-56
2023/08/18 10:55:10;;;;;;;74.97;9.90;;;24.60;82.70;;;;;;5029654;28;20036;-56
2023/08/18 10:57:37;;;;;;;59.85;9.35;;;24.70;82.60;;;;;;5027273;28;20030;-56
2023/08/18 11:00:10;;;;;;;57.35;9.40;;;24.70;82.40;;;;;;5026766;28;20121;-56
2023/08/18 11:02:36;;;;;;;70.57;8.82;;;24.80;82.70;;;;;;5021016;28;20033;-56
2023/08/18 11:05:04;;;;;;;69.50;10.35;;;24.80;82.40;;;;;;5023237;28;20030;-56
2023/08/18 11:07:30;;;;;;;71.32;9.02;;;24.90;82.20;;;;;;5026805;28;20042;-55
2023/08/18 11:09:55;;;;;;;75.07;9.88;;;25.00;81.90;;;;;;5022357;28;20141;-56
2023/08/18 11:12:21;;;;;;;77.68;7.72;;;25.00;82.10;;;;;;5024927;28;20034;-56
2023/08/18 11:14:47;;;;;;;51.80;7.95;;;25.10;81.80;;;;;;5040037;28;20525;-56
2023/08/18 11:17:12;;;;;;;58.10;10.35;;;25.10;81.50;;;;;;5024256;28;20367;-56
2023/08/18 11:19:38;;;;;;;45.63;8.43;;;25.20;81.40;;;;;;5024594;28;20082;-56
2023/08/18 11:22:04;;;;;;;53.45;7.63;;;25.30;81.10;;;;;;5025560;28;20076;-56
2023/08/18 11:24:30;;;;;;;86.40;10.50;;;25.30;81.10;;;;;;5039531;28;20041;-56
2023/08/18 11:26:56;;;;;;;58.08;8.05;;;25.40;80.80;;;;;;5018983;28;20026;-56
2023/08/18 11:29:22;;;;;;;54.78;7.78;;;25.50;80.30;;;;;;5023844;28;20045;-56
2023/08/18 11:31:48;;;;;;;64.00;8.30;;;25.60;80.10;;;;;;5039955;28;20474;-56
2023/08/18 11:34:14;;;;;;;79.28;9.38;;;25.70;79.90;;;;;;5025213;28;20033;-55
2023/08/18 11:36:39;;;;;;;58.10;9.05;;;25.80;79.80;;;;;;5023008;28;20533;-56
2023/08/18 11:39:08;;;;;;;61.13;9.23;;;25.80;79.60;;;;;;5021504;28;20109;-56
2023/08/18 11:41:42;;;;;;;65.35;9.23;;;25.90;79.30;;;;;;5016635;28;20027;-55
2023/08/18 11:44:08;;;;;;;55.88;9.00;;;26.00;78.80;;;;;;5020998;28;20046;-56
2023/08/18 11:46:37;;;;;;;88.22;9.77;;;26.00;78.50;;;;;;5018939;28;20060;-56
2023/08/18 11:49:20;;;;;;;83.47;11.43;;;26.20;78.60;;;;;;5039685;28;20026;-56
2023/08/18 11:51:56;;;;;;;61.88;8.90;;;26.20;78.30;;;;;;5025777;28;20098;-56
2023/08/18 11:54:22;;;;;;;45.67;6.93;;;26.30;77.80;;;;;;5025678;28;20026;-56
2023/08/18 11:56:50;;;;;;;59.03;8.15;;;26.40;77.60;;;;;;5041318;28;20169;-56
2023/08/18 11:59:22;;;;;;;49.90;7.70;;;26.50;77.40;;;;;;5025065;28;20140;-56
2023/08/18 12:01:54;;;;;;;52.53;7.88;;;26.60;77.10;;;;;;5025927;28;20026;-56
2023/08/18 12:04:24;;;;;;;30.20;6.03;;;26.70;76.70;;;;;;5025720;28;20042;-55
2023/08/18 12:06:50;;;;;;;48.45;7.13;;;26.80;76.50;;;;;;5026365;28;20050;-55
2023/08/18 12:09:16;;;;;;;41.25;6.40;;;26.80;76.20;;;;;;5026144;28;20033;-56
2023/08/18 12:11:41;;;;;;;30.42;6.15;;;26.90;75.80;;;;;;5024758;28;20037;-56
2023/08/18 12:14:07;;;;;;;36.83;6.18;;;27.00;75.90;;;;;;5026601;28;20030;-56
2023/08/18 12:16:33;;;;;;;30.80;5.57;;;27.10;75.10;;;;;;5025686;28;20030;-56
2023/08/18 12:18:58;;;;;;;23.77;5.63;;;27.10;75.10;;;;;;5026512;28;20021;-55
2023/08/18 12:21:24;;;;;;;34.85;6.10;;;27.20;74.70;;;;;;5025622;28;20033;-56
2023/08/18 12:23:49;;;;;;;39.78;6.22;;;27.30;74.70;;;;;;5020338;28;20037;-55
2023/08/18 12:26:17;;;;;;;24.08;4.43;;;27.40;74.40;;;;;;5022294;28;20060;-56
2023/08/18 12:28:43;;;;;;;29.92;6.30;;;27.50;73.20;;;;;;5021710;28;20034;-56
2023/08/18 12:31:08;;;;;;;20.80;5.05;;;27.50;72.10;;;;;;5013188;28;20038;-56
2023/08/18 12:33:34;;;;;;;27.55;5.07;;;27.70;71.40;;;;;;5014762;28;20106;-55
2023/08/18 12:35:59;;;;;;;20.55;5.07;;;27.80;70.80;;;;;;5021351;28;20042;-55